Bookmark and Share
Track history (hours):
 

Helene

Last reported at 2014-Apr-19 11:17 UTC. Time now 2014-Apr-19 12:05 UTC.
Position N 51°24' E 002°03'.

Length 139 m; draft 7.4 m.

Type: Ship. MMSI: 304846000.

NotesDate/timePositionNaut miles runAvg speedWind from/ knotsBaromVisibWave heightAir tempDewpointWater temp
2014-Apr-19 11:17N 51°24' E 002°03'1215.7
2014-Apr-19 10:33N 51°21' E 002°21'1616.0
2014-Apr-19 09:33N 51°22' E 002°47'1616.2
2014-Apr-19 08:34N 51°24' E 003°12'1615.6
2014-Apr-19 07:33N 51°26' E 003°37'1212.3
2014-Apr-19 06:33N 51°23' E 003°56'8 8.4
2014-Apr-19 05:33N 51°23' E 004°10'9 8.8
2014-Apr-19 04:33N 51°17' E 004°19'2 1.9
2014-Apr-19 03:32N 51°16' E 004°16'1 1.1
2014-Apr-19 02:29N 51°16' E 004°15'0 0.0
2014-Apr-19 01:20N 51°16' E 004°15'0 0.0
2014-Apr-19 00:29N 51°16' E 004°15'0 0.0
2014-Apr-18 23:32N 51°16' E 004°15'0 0.0
2014-Apr-18 22:32N 51°16' E 004°15'0 0.0
2014-Apr-18 21:32N 51°16' E 004°15'0 0.0
2014-Apr-18 20:26N 51°16' E 004°15'0 0.0
2014-Apr-18 19:32N 51°16' E 004°15'0 0.0
2014-Apr-18 18:20N 51°16' E 004°15'0 0.0
2014-Apr-18 17:32N 51°16' E 004°15'0 0.0
2014-Apr-18 16:29N 51°16' E 004°15'0 0.0
2014-Apr-18 15:26N 51°16' E 004°15'0 0.0
2014-Apr-18 14:23N 51°16' E 004°15'0 0.0
2014-Apr-18 13:32N 51°16' E 004°15'0 0.0
2014-Apr-18 11:32N 51°16' E 004°15'0 0.0
2014-Apr-18 08:26N 51°16' E 004°15'0 0.0
2014-Apr-18 07:29N 51°16' E 004°15'1 0.9
2014-Apr-18 06:33N 51°16' E 004°16'1 0.6
2014-Apr-18 05:33N 51°16' E 004°17'0 0.5
2014-Apr-18 04:34N 51°16' E 004°18'4 3.8
2014-Apr-18 03:34N 51°20' E 004°16'7 6.5
2014-Apr-18 02:33N 51°22' E 004°07'7 6.9
2014-Apr-18 01:33N 51°22' E 003°56'1010.3
2014-Apr-18 00:34N 51°26' E 003°40'1211.8
2014-Apr-17 23:34N 51°24' E 003°22'1413.8
2014-Apr-17 22:33N 51°23' E 002°60'1211.8
2014-Apr-17 21:33N 51°22' E 002°41'4 4.0
2014-Apr-17 20:31N 51°20' E 002°35'0 0.0
2014-Apr-17 19:31N 51°20' E 002°35'0 0.1
2014-Apr-17 18:31N 51°20' E 002°35'6 6.0
2014-Apr-17 17:33N 51°21' E 002°26'1313.0
2014-Apr-17 16:33N 51°14' E 002°08'1414.2
2014-Apr-17 15:33N 51°07' E 001°48'1313.3
2014-Apr-17 14:33N 51°08' E 001°27'4 1.8
2014-Apr-17 12:23N 51°08' E 001°20'0 0.0
2014-Apr-17 10:09N 51°08' E 001°20'0 0.0
2014-Apr-17 05:33N 51°08' E 001°20'0 0.0
2014-Apr-17 04:33N 51°08' E 001°20'0 0.0
2014-Apr-17 03:33N 51°08' E 001°20'0 0.0
2014-Apr-17 02:23N 51°08' E 001°20'0 0.0
2014-Apr-17 01:27N 51°08' E 001°20'0 0.0
2014-Apr-17 00:15N 51°08' E 001°20'0 0.0
2014-Apr-16 23:29N 51°08' E 001°20'0 0.1
2014-Apr-16 18:26N 51°07' E 001°20'9 9.9
2014-Apr-16 17:33N 51°07' E 001°34'1413.5
2014-Apr-16 16:34N 51°17' E 001°49'2412.0
2014-Apr-16 14:33N 51°37' E 002°12'2411.6
2014-Apr-16 12:31N 51°49' E 002°44'25 4.9
2014-Apr-16 07:28N 51°48' E 003°23'0 0.0
2014-Apr-16 06:31N 51°48' E 003°23'0 0.0
2014-Apr-16 02:21N 51°48' E 003°24'0 0.0
2014-Apr-15 20:10N 51°48' E 003°23'0 0.0
2014-Apr-15 19:22N 51°48' E 003°24'19 2.2
2014-Apr-15 10:34N 52°03' E 003°43'1111.1
2014-Apr-15 09:34N 52°01' E 004°00'4 3.9
2014-Apr-15 08:29N 51°57' E 004°03'0 0.0
2014-Apr-15 03:32N 51°57' E 004°03'0 0.0
2014-Apr-15 01:29N 51°57' E 004°03'0 0.0
2014-Apr-15 00:32N 51°57' E 004°03'0 0.1
2014-Apr-14 23:33N 51°57' E 004°03'1 0.7
2014-Apr-14 22:33N 51°57' E 004°03'0 0.0
2014-Apr-14 20:33N 51°57' E 004°03'0 0.0
2014-Apr-14 19:30N 51°57' E 004°03'0 0.0
2014-Apr-14 18:33N 51°57' E 004°03'0 0.0
2014-Apr-14 17:34N 51°57' E 004°03'0 0.0
2014-Apr-14 16:33N 51°57' E 004°03'1 0.7
2014-Apr-14 15:34N 51°58' E 004°04'2 1.5
2014-Apr-14 14:31N 51°59' E 004°01'1 0.2
2014-Apr-14 10:31N 51°58' E 004°02'0 0.0
2014-Apr-14 09:31N 51°58' E 004°02'1 0.7
2014-Apr-14 08:33N 51°58' E 004°03'7 6.7
2014-Apr-14 07:33N 51°60' E 003°53'9 8.7
2014-Apr-14 06:33N 52°07' E 003°45'1 1.0
2014-Apr-14 05:33N 52°08' E 003°44'9012.9
2014-Apr-13 22:33N 53°30' E 004°46'1413.8
2014-Apr-13 21:33N 53°35' E 005°08'1313.2
2014-Apr-13 20:33N 53°39' E 005°29'1313.0
2014-Apr-13 19:33N 53°43' E 005°50'3812.6
2014-Apr-13 16:33N 53°55' E 006°51'1414.2
2014-Apr-13 15:34N 53°58' E 007°14'1514.7
2014-Apr-13 14:33N 54°01' E 007°39'1313.3
2014-Apr-13 13:33N 54°01' E 008°01'1212.2
2014-Apr-13 12:33N 53°60' E 008°22'1313.1
2014-Apr-13 11:33N 53°54' E 008°42'1010.1
2014-Apr-13 10:33N 53°51' E 008°58'7 6.7
2014-Apr-13 09:33N 53°54' E 009°09'2 2.4
2014-Apr-13 08:33N 53°55' E 009°12'7 6.7
2014-Apr-13 07:33N 54°01' E 009°18'4 4.0
2014-Apr-13 06:33N 54°05' E 009°19'4 4.5
2014-Apr-13 05:33N 54°09' E 009°22'3 3.3
2014-Apr-13 04:33N 54°11' E 009°27'7 6.6
2014-Apr-13 03:33N 54°14' E 009°36'49 4.9
2014-Apr-12 17:29N 54°35' E 010°52'1313.7
2014-Apr-12 16:33N 54°35' E 011°15'1514.6
2014-Apr-12 15:33N 54°29' E 011°37'1413.8
2014-Apr-12 14:32N 54°26' E 012°01'1312.9
2014-Apr-12 13:33N 54°36' E 012°14'1514.7
2014-Apr-12 12:33N 54°45' E 012°35'1514.7
2014-Apr-12 11:33N 54°51' E 012°58'1514.9
2014-Apr-12 10:33N 54°55' E 013°23'1515.0
2014-Apr-12 09:33N 55°00' E 013°48'1414.6
2014-Apr-12 08:33N 55°08' E 014°09'1515.2
2014-Apr-12 07:33N 55°20' E 014°26'1514.6
2014-Apr-12 06:34N 55°29' E 014°46'1515.1
2014-Apr-12 05:33N 55°34' E 015°10'1514.9
2014-Apr-12 04:33N 55°39' E 015°36'3315.0
2014-Apr-12 02:23N 55°48' E 016°31'  

Dump ship's entire track history

sailing weather and tide predictions

Helene — V2BK5 — position and weather